Ackermanville, Pennsylvania
Current Conditions -  °F | °C
As of 11:51 AM on Saturday 25 Oct 2014 (Local Time) from KABE Reporting Station
Clear Clear  
Wind Chill: 18°   Ceiling: Unl
Heat Index: 18°   Visibility: 10mi
Dew Point:   Wind: 12mph
Humidity: 43%   Direction: 280°W
Pressure: 29.83"   Gusts: NA
Location:  40.84°N, 75.22°W
Report Text: KABE 251551Z 28010KT 10SM CLR 18/06 A2983 RMK AO2 SLP101 T01830056
Loading
Personal Weather Stations






























Interactive Weather Map
Tropical Storm Tracking
New forecast layout! Learn more

10-Day Weather Forecast

Advertisements
Track Severe Weather on mobile